sensor_id;sensor_type;location;lat;lon;timestamp;pressure;altitude;pressure_sealevel;temperature;humidity
9523;BME280;63165;43.016;25.784;2023-05-20T00:02:21;100410.03;;;14.60;100.00
9523;BME280;63165;43.016;25.784;2023-05-20T00:04:50;100391.94;;;14.46;100.00
9523;BME280;63165;43.016;25.784;2023-05-20T00:07:18;100345.00;;;13.96;100.00
9523;BME280;63165;43.016;25.784;2023-05-20T00:09:47;100339.91;;;13.90;100.00
9523;BME280;63165;43.016;25.784;2023-05-20T00:12:15;100409.25;;;14.22;100.00
9523;BME280;63165;43.016;25.784;2023-05-20T00:14:42;100379.41;;;14.21;100.00
9523;BME280;63165;43.016;25.784;2023-05-20T00:17:11;100387.22;;;14.26;100.00
9523;BME280;63165;43.016;25.784;2023-05-20T00:19:39;100300.34;;;13.93;100.00
9523;BME280;63165;43.016;25.784;2023-05-20T00:22:09;100323.25;;;13.89;100.00
9523;BME280;63165;43.016;25.784;2023-05-20T00:24:36;100298.00;;;13.82;100.00
9523;BME280;63165;43.016;25.784;2023-05-20T00:27:05;100305.16;;;13.77;100.00
9523;BME280;63165;43.016;25.784;2023-05-20T00:29:33;100311.22;;;13.81;100.00
9523;BME280;63165;43.016;25.784;2023-05-20T00:32:00;100410.63;;;14.36;100.00
9523;BME280;63165;43.016;25.784;2023-05-20T00:34:27;100413.00;;;14.46;100.00
9523;BME280;63165;43.016;25.784;2023-05-20T00:36:54;100339.81;;;13.93;100.00
9523;BME280;63165;43.016;25.784;2023-05-20T00:39:25;100348.09;;;14.12;100.00
9523;BME280;63165;43.016;25.784;2023-05-20T00:41:54;100392.13;;;14.38;100.00
9523;BME280;63165;43.016;25.784;2023-05-20T00:44:28;100390.69;;;14.26;100.00
9523;BME280;63165;43.016;25.784;2023-05-20T00:46:55;100376.78;;;14.21;100.00
9523;BME280;63165;43.016;25.784;2023-05-20T00:49:23;100379.16;;;14.32;100.00
9523;BME280;63165;43.016;25.784;2023-05-20T00:51:50;100360.97;;;14.23;100.00
9523;BME280;63165;43.016;25.784;2023-05-20T00:54:18;100344.84;;;14.02;100.00
9523;BME280;63165;43.016;25.784;2023-05-20T00:56:48;100383.28;;;14.42;100.00
9523;BME280;63165;43.016;25.784;2023-05-20T00:59:15;100333.19;;;14.12;100.00
9523;BME280;63165;43.016;25.784;2023-05-20T01:01:42;100389.34;;;14.44;100.00
9523;BME280;63165;43.016;25.784;2023-05-20T01:04:10;100388.53;;;14.42;100.00
9523;BME280;63165;43.016;25.784;2023-05-20T01:06:37;100318.69;;;13.96;100.00
9523;BME280;63165;43.016;25.784;2023-05-20T01:09:04;100293.00;;;13.73;100.00
9523;BME280;63165;43.016;25.784;2023-05-20T01:11:35;100328.06;;;14.06;100.00
9523;BME280;63165;43.016;25.784;2023-05-20T01:14:07;100344.94;;;13.99;100.00
9523;BME280;63165;43.016;25.784;2023-05-20T01:16:36;100289.59;;;13.69;100.00
9523;BME280;63165;43.016;25.784;2023-05-20T01:19:12;100272.25;;;13.62;100.00
9523;BME280;63165;43.016;25.784;2023-05-20T01:21:47;100295.97;;;13.59;100.00
9523;BME280;63165;43.016;25.784;2023-05-20T01:24:17;100349.69;;;14.17;100.00
9523;BME280;63165;43.016;25.784;2023-05-20T01:26:45;100367.19;;;14.20;100.00
9523;BME280;63165;43.016;25.784;2023-05-20T01:29:13;100275.09;;;13.53;100.00
9523;BME280;63165;43.016;25.784;2023-05-20T01:31:43;100268.84;;;13.57;100.00
9523;BME280;63165;43.016;25.784;2023-05-20T01:34:12;100295.31;;;13.51;100.00
9523;BME280;63165;43.016;25.784;2023-05-20T01:36:40;100372.72;;;14.09;100.00
9523;BME280;63165;43.016;25.784;2023-05-20T01:39:08;100274.34;;;13.48;100.00
9523;BME280;63165;43.016;25.784;2023-05-20T01:41:38;100301.16;;;13.62;100.00
9523;BME280;63165;43.016;25.784;2023-05-20T01:44:08;100327.00;;;13.81;100.00
9523;BME280;63165;43.016;25.784;2023-05-20T01:46:35;100299.34;;;13.64;100.00
9523;BME280;63165;43.016;25.784;2023-05-20T01:49:02;100335.53;;;13.89;100.00
9523;BME280;63165;43.016;25.784;2023-05-20T01:51:30;100354.59;;;13.97;100.00
9523;BME280;63165;43.016;25.784;2023-05-20T01:54:02;100294.50;;;13.49;100.00
9523;BME280;63165;43.016;25.784;2023-05-20T01:56:30;100347.03;;;13.85;100.00
9523;BME280;63165;43.016;25.784;2023-05-20T01:58:59;100342.13;;;13.71;100.00
9523;BME280;63165;43.016;25.784;2023-05-20T02:01:26;100344.75;;;13.71;100.00
9523;BME280;63165;43.016;25.784;2023-05-20T02:03:54;100252.06;;;13.27;100.00
9523;BME280;63165;43.016;25.784;2023-05-20T02:06:21;100337.88;;;13.65;100.00
9523;BME280;63165;43.016;25.784;2023-05-20T02:08:49;100297.41;;;13.36;100.00
9523;BME280;63165;43.016;25.784;2023-05-20T02:11:17;100292.72;;;13.49;100.00
9523;BME280;63165;43.016;25.784;2023-05-20T02:13:44;100336.13;;;13.66;100.00
9523;BME280;63165;43.016;25.784;2023-05-20T02:16:13;100349.84;;;13.78;100.00
9523;BME280;63165;43.016;25.784;2023-05-20T02:18:41;100283.28;;;13.40;100.00
9523;BME280;63165;43.016;25.784;2023-05-20T02:21:08;100314.53;;;13.53;100.00
9523;BME280;63165;43.016;25.784;2023-05-20T02:23:36;100305.09;;;13.44;100.00
9523;BME280;63165;43.016;25.784;2023-05-20T02:26:03;100295.69;;;13.35;100.00
9523;BME280;63165;43.016;25.784;2023-05-20T02:28:30;100287.75;;;13.37;100.00
9523;BME280;63165;43.016;25.784;2023-05-20T02:30:58;100273.50;;;13.10;100.00
9523;BME280;63165;43.016;25.784;2023-05-20T02:33:26;100326.84;;;13.51;100.00
9523;BME280;63165;43.016;25.784;2023-05-20T02:35:54;100299.31;;;13.30;100.00
9523;BME280;63165;43.016;25.784;2023-05-20T02:38:21;100369.34;;;13.70;100.00
9523;BME280;63165;43.016;25.784;2023-05-20T02:40:48;100294.94;;;13.29;100.00
9523;BME280;63165;43.016;25.784;2023-05-20T02:43:15;100324.69;;;13.31;100.00
9523;BME280;63165;43.016;25.784;2023-05-20T02:45:43;100348.72;;;13.53;100.00
9523;BME280;63165;43.016;25.784;2023-05-20T02:48:10;100266.59;;;13.06;100.00
9523;BME280;63165;43.016;25.784;2023-05-20T02:50:39;100312.34;;;13.34;100.00
9523;BME280;63165;43.016;25.784;2023-05-20T02:53:06;100346.72;;;13.63;100.00
9523;BME280;63165;43.016;25.784;2023-05-20T02:55:33;100275.06;;;13.17;100.00
9523;BME280;63165;43.016;25.784;2023-05-20T02:58:01;100317.41;;;13.42;100.00
9523;BME280;63165;43.016;25.784;2023-05-20T03:00:28;100304.44;;;13.36;100.00
9523;BME280;63165;43.016;25.784;2023-05-20T03:02:56;100308.75;;;13.38;100.00
9523;BME280;63165;43.016;25.784;2023-05-20T03:05:24;100349.69;;;13.49;100.00
9523;BME280;63165;43.016;25.784;2023-05-20T03:07:53;100347.91;;;13.49;100.00
9523;BME280;63165;43.016;25.784;2023-05-20T03:10:20;100378.03;;;13.72;100.00
9523;BME280;63165;43.016;25.784;2023-05-20T03:12:48;100389.22;;;13.80;100.00
9523;BME280;63165;43.016;25.784;2023-05-20T03:15:16;100313.31;;;13.30;100.00
9523;BME280;63165;43.016;25.784;2023-05-20T03:17:44;100373.78;;;13.68;100.00
9523;BME280;63165;43.016;25.784;2023-05-20T03:20:12;100399.06;;;13.73;100.00
9523;BME280;63165;43.016;25.784;2023-05-20T03:22:41;100394.72;;;13.71;100.00
9523;BME280;63165;43.016;25.784;2023-05-20T03:25:12;100397.91;;;13.84;100.00
9523;BME280;63165;43.016;25.784;2023-05-20T03:27:39;100333.91;;;13.49;100.00
9523;BME280;63165;43.016;25.784;2023-05-20T03:30:08;100350.25;;;13.62;100.00
9523;BME280;63165;43.016;25.784;2023-05-20T03:32:35;100358.19;;;13.60;100.00
9523;BME280;63165;43.016;25.784;2023-05-20T03:35:03;100385.88;;;13.75;100.00
9523;BME280;63165;43.016;25.784;2023-05-20T03:37:30;100390.38;;;13.70;100.00
9523;BME280;63165;43.016;25.784;2023-05-20T03:39:57;100381.44;;;13.77;100.00
9523;BME280;63165;43.016;25.784;2023-05-20T03:42:26;100386.22;;;13.59;100.00
9523;BME280;63165;43.016;25.784;2023-05-20T03:44:53;100374.84;;;13.59;100.00
9523;BME280;63165;43.016;25.784;2023-05-20T03:47:21;100385.16;;;13.67;100.00
9523;BME280;63165;43.016;25.784;2023-05-20T03:49:48;100380.91;;;13.63;100.00
9523;BME280;63165;43.016;25.784;2023-05-20T03:52:15;100393.75;;;13.75;100.00
9523;BME280;63165;43.016;25.784;2023-05-20T03:54:43;100365.03;;;13.67;100.00
9523;BME280;63165;43.016;25.784;2023-05-20T03:57:10;100288.31;;;13.12;100.00
9523;BME280;63165;43.016;25.784;2023-05-20T03:59:39;100343.50;;;13.50;100.00
9523;BME280;63165;43.016;25.784;2023-05-20T04:02:06;100309.78;;;13.31;100.00
9523;BME280;63165;43.016;25.784;2023-05-20T04:04:33;100372.31;;;13.56;100.00
9523;BME280;63165;43.016;25.784;2023-05-20T04:07:00;100381.63;;;13.69;100.00
9523;BME280;63165;43.016;25.784;2023-05-20T04:09:28;100361.78;;;13.56;100.00
9523;BME280;63165;43.016;25.784;2023-05-20T04:11:55;100394.44;;;13.82;100.00
9523;BME280;63165;43.016;25.784;2023-05-20T04:14:22;100375.34;;;13.75;100.00
9523;BME280;63165;43.016;25.784;2023-05-20T04:16:51;100346.88;;;13.56;100.00
9523;BME280;63165;43.016;25.784;2023-05-20T04:19:18;100411.72;;;13.93;100.00
9523;BME280;63165;43.016;25.784;2023-05-20T04:21:45;100341.63;;;13.56;100.00
9523;BME280;63165;43.016;25.784;2023-05-20T04:24:12;100321.72;;;13.45;100.00
9523;BME280;63165;43.016;25.784;2023-05-20T04:26:40;100388.53;;;14.08;100.00
9523;BME280;63165;43.016;25.784;2023-05-20T04:29:07;100376.34;;;14.05;100.00
9523;BME280;63165;43.016;25.784;2023-05-20T04:31:34;100350.50;;;13.87;100.00
9523;BME280;63165;43.016;25.784;2023-05-20T04:34:02;100361.53;;;14.01;100.00
9523;BME280;63165;43.016;25.784;2023-05-20T04:36:30;100302.88;;;13.63;100.00
9523;BME280;63165;43.016;25.784;2023-05-20T04:38:58;100357.75;;;14.11;100.00
9523;BME280;63165;43.016;25.784;2023-05-20T04:41:26;100386.09;;;14.34;100.00
9523;BME280;63165;43.016;25.784;2023-05-20T04:43:53;100344.34;;;14.21;100.00
9523;BME280;63165;43.016;25.784;2023-05-20T04:46:24;100388.16;;;14.56;100.00
9523;BME280;63165;43.016;25.784;2023-05-20T04:48:51;100362.06;;;14.47;100.00
9523;BME280;63165;43.016;25.784;2023-05-20T04:51:20;100399.78;;;14.80;100.00
9523;BME280;63165;43.016;25.784;2023-05-20T04:53:47;100402.44;;;14.80;100.00
9523;BME280;63165;43.016;25.784;2023-05-20T04:56:15;100400.56;;;14.84;100.00
9523;BME280;63165;43.016;25.784;2023-05-20T04:58:42;100337.31;;;14.85;100.00
9523;BME280;63165;43.016;25.784;2023-05-20T05:01:10;100350.97;;;14.98;100.00
9523;BME280;63165;43.016;25.784;2023-05-20T05:03:37;100395.41;;;15.39;100.00
9523;BME280;63165;43.016;25.784;2023-05-20T05:06:04;100401.22;;;15.50;100.00
9523;BME280;63165;43.016;25.784;2023-05-20T05:08:33;100418.94;;;15.45;100.00
9523;BME280;63165;43.016;25.784;2023-05-20T05:11:04;100360.63;;;15.27;100.00
9523;BME280;63165;43.016;25.784;2023-05-20T05:13:32;100347.44;;;15.27;100.00
9523;BME280;63165;43.016;25.784;2023-05-20T05:16:00;100372.97;;;15.53;100.00
9523;BME280;63165;43.016;25.784;2023-05-20T05:18:36;100372.03;;;15.56;100.00
9523;BME280;63165;43.016;25.784;2023-05-20T05:21:04;100369.97;;;15.66;100.00
9523;BME280;63165;43.016;25.784;2023-05-20T05:23:34;100330.56;;;15.60;100.00
9523;BME280;63165;43.016;25.784;2023-05-20T05:26:01;100363.84;;;15.92;100.00
9523;BME280;63165;43.016;25.784;2023-05-20T05:28:30;100364.97;;;15.85;100.00
9523;BME280;63165;43.016;25.784;2023-05-20T05:30:58;100307.91;;;15.82;99.04
9523;BME280;63165;43.016;25.784;2023-05-20T05:33:26;100409.41;;;16.49;97.92
9523;BME280;63165;43.016;25.784;2023-05-20T05:35:56;100352.97;;;16.26;96.84
9523;BME280;63165;43.016;25.784;2023-05-20T05:38:28;100384.53;;;16.55;96.37
9523;BME280;63165;43.016;25.784;2023-05-20T05:40:56;100319.59;;;16.25;95.02
9523;BME280;63165;43.016;25.784;2023-05-20T05:43:27;100403.03;;;16.80;94.92
9523;BME280;63165;43.016;25.784;2023-05-20T05:45:54;100418.16;;;17.00;94.14
9523;BME280;63165;43.016;25.784;2023-05-20T05:48:21;100424.25;;;17.02;93.77
9523;BME280;63165;43.016;25.784;2023-05-20T05:50:49;100368.63;;;17.05;94.12
9523;BME280;63165;43.016;25.784;2023-05-20T05:53:16;100357.44;;;16.98;93.46
9523;BME280;63165;43.016;25.784;2023-05-20T05:55:45;100410.19;;;17.47;92.55
9523;BME280;63165;43.016;25.784;2023-05-20T05:58:13;100434.00;;;17.69;92.23
9523;BME280;63165;43.016;25.784;2023-05-20T06:00:40;100427.09;;;17.89;92.09
9523;BME280;63165;43.016;25.784;2023-05-20T06:06:57;100331.13;;;17.82;90.81
9523;BME280;63165;43.016;25.784;2023-05-20T06:09:29;100442.59;;;18.61;90.83
9523;BME280;63165;43.016;25.784;2023-05-20T06:11:56;100406.41;;;18.60;89.55
9523;BME280;63165;43.016;25.784;2023-05-20T06:14:25;100393.41;;;18.74;86.85
9523;BME280;63165;43.016;25.784;2023-05-20T06:16:52;100440.47;;;19.09;86.47
9523;BME280;63165;43.016;25.784;2023-05-20T06:19:20;100427.38;;;19.25;85.90
9523;BME280;63165;43.016;25.784;2023-05-20T06:21:47;100419.13;;;19.31;84.90
9523;BME280;63165;43.016;25.784;2023-05-20T06:24:14;100429.13;;;19.43;83.62
9523;BME280;63165;43.016;25.784;2023-05-20T06:26:41;100432.81;;;19.40;82.28
9523;BME280;63165;43.016;25.784;2023-05-20T06:29:10;100395.25;;;19.31;81.06
9523;BME280;63165;43.016;25.784;2023-05-20T06:31:39;100397.69;;;19.16;80.31
9523;BME280;63165;43.016;25.784;2023-05-20T06:34:06;100402.25;;;19.32;80.16
9523;BME280;63165;43.016;25.784;2023-05-20T06:36:33;100400.03;;;19.23;79.89
9523;BME280;63165;43.016;25.784;2023-05-20T06:39:00;100424.25;;;19.34;79.88
9523;BME280;63165;43.016;25.784;2023-05-20T06:41:28;100416.22;;;19.35;79.00
9523;BME280;63165;43.016;25.784;2023-05-20T06:43:55;100431.59;;;19.48;79.42
9523;BME280;63165;43.016;25.784;2023-05-20T06:46:22;100418.75;;;19.38;78.90
9523;BME280;63165;43.016;25.784;2023-05-20T06:48:51;100425.19;;;19.52;78.23
9523;BME280;63165;43.016;25.784;2023-05-20T06:51:18;100403.75;;;19.37;78.58
9523;BME280;63165;43.016;25.784;2023-05-20T06:53:46;100409.50;;;19.47;78.90
9523;BME280;63165;43.016;25.784;2023-05-20T06:56:13;100425.78;;;19.58;78.38
9523;BME280;63165;43.016;25.784;2023-05-20T06:58:40;100400.75;;;19.45;78.66
9523;BME280;63165;43.016;25.784;2023-05-20T07:01:07;100377.16;;;19.39;78.87
9523;BME280;63165;43.016;25.784;2023-05-20T07:03:34;100387.13;;;19.53;78.51
9523;BME280;63165;43.016;25.784;2023-05-20T07:06:03;100400.72;;;19.64;77.61
9523;BME280;63165;43.016;25.784;2023-05-20T07:08:30;100424.97;;;19.75;77.59
9523;BME280;63165;43.016;25.784;2023-05-20T07:10:57;100414.06;;;19.82;78.36
9523;BME280;63165;43.016;25.784;2023-05-20T07:13:24;100439.44;;;19.87;77.85
9523;BME280;63165;43.016;25.784;2023-05-20T07:15:51;100358.47;;;19.59;77.70
9523;BME280;63165;43.016;25.784;2023-05-20T07:18:19;100378.63;;;19.83;77.53
9523;BME280;63165;43.016;25.784;2023-05-20T07:20:46;100381.88;;;19.88;77.24
9523;BME280;63165;43.016;25.784;2023-05-20T07:23:18;100351.22;;;19.63;77.55
9523;BME280;63165;43.016;25.784;2023-05-20T07:25:46;100387.63;;;19.97;78.35
9523;BME280;63165;43.016;25.784;2023-05-20T07:28:14;100418.06;;;20.25;77.86
9523;BME280;63165;43.016;25.784;2023-05-20T07:30:42;100395.25;;;20.21;77.42
9523;BME280;63165;43.016;25.784;2023-05-20T07:33:11;100411.91;;;20.25;77.41
9523;BME280;63165;43.016;25.784;2023-05-20T07:35:38;100390.97;;;20.19;77.78
9523;BME280;63165;43.016;25.784;2023-05-20T07:38:05;100362.91;;;20.13;77.79
9523;BME280;63165;43.016;25.784;2023-05-20T07:40:34;100389.91;;;20.39;77.16
9523;BME280;63165;43.016;25.784;2023-05-20T07:43:03;100424.94;;;20.64;76.96
9523;BME280;63165;43.016;25.784;2023-05-20T07:45:33;100384.50;;;20.58;76.28
9523;BME280;63165;43.016;25.784;2023-05-20T07:48:00;100361.16;;;20.47;76.48
9523;BME280;63165;43.016;25.784;2023-05-20T07:50:27;100400.59;;;20.89;75.64
9523;BME280;63165;43.016;25.784;2023-05-20T07:52:55;100419.72;;;20.96;75.64
9523;BME280;63165;43.016;25.784;2023-05-20T07:55:22;100416.31;;;21.10;75.15
9523;BME280;63165;43.016;25.784;2023-05-20T07:57:50;100379.53;;;20.85;74.29
9523;BME280;63165;43.016;25.784;2023-05-20T08:00:18;100401.44;;;21.06;74.59
9523;BME280;63165;43.016;25.784;2023-05-20T08:02:45;100401.81;;;21.16;74.38
9523;BME280;63165;43.016;25.784;2023-05-20T08:05:13;100361.03;;;20.99;74.49
9523;BME280;63165;43.016;25.784;2023-05-20T08:08:26;100368.81;;;20.86;74.89
9523;BME280;63165;43.016;25.784;2023-05-20T08:10:54;100374.34;;;20.99;75.01
9523;BME280;63165;43.016;25.784;2023-05-20T08:13:23;100372.78;;;21.11;73.86
9523;BME280;63165;43.016;25.784;2023-05-20T08:15:52;100330.66;;;21.03;73.60
9523;BME280;63165;43.016;25.784;2023-05-20T08:18:19;100357.00;;;21.24;74.33
9523;BME280;63165;43.016;25.784;2023-05-20T08:20:46;100406.75;;;21.55;74.51
9523;BME280;63165;43.016;25.784;2023-05-20T08:23:13;100353.31;;;21.42;73.73
9523;BME280;63165;43.016;25.784;2023-05-20T08:25:41;100367.94;;;21.51;72.98
9523;BME280;63165;43.016;25.784;2023-05-20T08:28:08;100342.41;;;21.31;72.72
9523;BME280;63165;43.016;25.784;2023-05-20T08:30:37;100326.00;;;21.23;72.72
9523;BME280;63165;43.016;25.784;2023-05-20T08:33:04;100396.34;;;21.66;72.89
9523;BME280;63165;43.016;25.784;2023-05-20T08:35:31;100377.19;;;21.60;72.41
9523;BME280;63165;43.016;25.784;2023-05-20T08:37:58;100392.09;;;21.78;72.46
9523;BME280;63165;43.016;25.784;2023-05-20T08:40:26;100359.50;;;21.59;72.17
9523;BME280;63165;43.016;25.784;2023-05-20T08:42:53;100388.72;;;21.90;71.75
9523;BME280;63165;43.016;25.784;2023-05-20T08:45:22;100374.13;;;21.82;71.34
9523;BME280;63165;43.016;25.784;2023-05-20T08:47:54;100392.69;;;21.83;70.56
9523;BME280;63165;43.016;25.784;2023-05-20T08:50:21;100373.88;;;21.86;71.05
9523;BME280;63165;43.016;25.784;2023-05-20T08:52:49;100346.72;;;21.80;70.21
9523;BME280;63165;43.016;25.784;2023-05-20T08:55:17;100383.31;;;21.92;69.26
9523;BME280;63165;43.016;25.784;2023-05-20T08:57:47;100373.97;;;21.85;69.00
9523;BME280;63165;43.016;25.784;2023-05-20T09:00:15;100306.69;;;21.51;69.09
9523;BME280;63165;43.016;25.784;2023-05-20T09:02:44;100359.50;;;21.89;68.58
9523;BME280;63165;43.016;25.784;2023-05-20T09:05:13;100298.03;;;21.47;68.67
9523;BME280;63165;43.016;25.784;2023-05-20T09:07:40;100372.69;;;21.76;69.23
9523;BME280;63165;43.016;25.784;2023-05-20T09:10:08;100326.94;;;21.54;69.09
9523;BME280;63165;43.016;25.784;2023-05-20T09:12:36;100336.47;;;21.58;69.66
9523;BME280;63165;43.016;25.784;2023-05-20T09:15:05;100344.09;;;21.64;70.37
9523;BME280;63165;43.016;25.784;2023-05-20T09:17:34;100316.19;;;21.39;71.21
9523;BME280;63165;43.016;25.784;2023-05-20T09:20:05;100297.69;;;21.22;70.49
9523;BME280;63165;43.016;25.784;2023-05-20T09:22:37;100340.00;;;21.42;71.27
9523;BME280;63165;43.016;25.784;2023-05-20T09:25:05;100328.06;;;21.33;71.18
9523;BME280;63165;43.016;25.784;2023-05-20T09:27:34;100269.22;;;20.76;70.96
9523;BME280;63165;43.016;25.784;2023-05-20T09:30:05;100279.50;;;20.98;71.82
9523;BME280;63165;43.016;25.784;2023-05-20T09:32:33;100305.59;;;21.07;72.28
9523;BME280;63165;43.016;25.784;2023-05-20T09:35:00;100307.31;;;21.08;72.65
9523;BME280;63165;43.016;25.784;2023-05-20T09:37:29;100308.84;;;21.12;72.67
9523;BME280;63165;43.016;25.784;2023-05-20T09:40:03;100303.09;;;21.20;72.25
9523;BME280;63165;43.016;25.784;2023-05-20T09:42:39;100312.44;;;21.27;71.10
9523;BME280;63165;43.016;25.784;2023-05-20T09:45:08;100341.88;;;21.40;71.12
9523;BME280;63165;43.016;25.784;2023-05-20T09:47:38;100275.31;;;21.10;71.07
9523;BME280;63165;43.016;25.784;2023-05-20T09:50:07;100294.88;;;21.25;70.71
9523;BME280;63165;43.016;25.784;2023-05-20T09:52:36;100335.03;;;21.52;70.23
9523;BME280;63165;43.016;25.784;2023-05-20T09:55:07;100272.13;;;21.19;69.42
9523;BME280;63165;43.016;25.784;2023-05-20T09:57:35;100321.63;;;21.54;69.11
9523;BME280;63165;43.016;25.784;2023-05-20T10:00:06;100339.13;;;21.58;69.10
9523;BME280;63165;43.016;25.784;2023-05-20T10:02:35;100318.16;;;21.67;68.50
9523;BME280;63165;43.016;25.784;2023-05-20T10:05:05;100320.56;;;21.72;68.55
9523;BME280;63165;43.016;25.784;2023-05-20T10:08:03;100282.00;;;21.63;69.18
9523;BME280;63165;43.016;25.784;2023-05-20T10:10:44;100326.16;;;21.98;69.65
9523;BME280;63165;43.016;25.784;2023-05-20T10:13:21;100302.94;;;22.00;69.14
9523;BME280;63165;43.016;25.784;2023-05-20T10:16:02;100308.66;;;22.08;66.58
9523;BME280;63165;43.016;25.784;2023-05-20T10:18:43;100290.66;;;22.12;65.98
9523;BME280;63165;43.016;25.784;2023-05-20T10:21:21;100320.34;;;22.50;66.66
9523;BME280;63165;43.016;25.784;2023-05-20T10:23:49;100322.50;;;22.72;66.29
9523;BME280;63165;43.016;25.784;2023-05-20T10:26:18;100320.13;;;22.82;65.24
9523;BME280;63165;43.016;25.784;2023-05-20T10:28:48;100319.81;;;23.01;64.56
9523;BME280;63165;43.016;25.784;2023-05-20T10:31:16;100291.13;;;23.04;64.77
9523;BME280;63165;43.016;25.784;2023-05-20T10:33:45;100308.69;;;23.49;64.65
9523;BME280;63165;43.016;25.784;2023-05-20T10:36:22;100318.72;;;23.72;63.81
9523;BME280;63165;43.016;25.784;2023-05-20T10:38:52;100317.72;;;24.00;62.26
9523;BME280;63165;43.016;25.784;2023-05-20T10:41:22;100272.81;;;23.93;61.55
9523;BME280;63165;43.016;25.784;2023-05-20T10:44:01;100320.63;;;24.49;60.44
9523;BME280;63165;43.016;25.784;2023-05-20T10:46:29;100308.22;;;24.60;59.87
9523;BME280;63165;43.016;25.784;2023-05-20T10:48:57;100313.19;;;24.78;59.73
9523;BME280;63165;43.016;25.784;2023-05-20T10:51:24;100311.84;;;25.09;58.41
9523;BME280;63165;43.016;25.784;2023-05-20T10:53:56;100307.63;;;25.31;58.03
9523;BME280;63165;43.016;25.784;2023-05-20T10:56:26;100309.25;;;25.45;58.20
9523;BME280;63165;43.016;25.784;2023-05-20T10:58:53;100293.38;;;25.66;57.87
9523;BME280;63165;43.016;25.784;2023-05-20T11:01:24;100264.09;;;25.87;56.28
9523;BME280;63165;43.016;25.784;2023-05-20T11:06:51;100258.91;;;26.08;53.81
9523;BME280;63165;43.016;25.784;2023-05-20T11:09:22;100291.84;;;26.32;53.15
9523;BME280;63165;43.016;25.784;2023-05-20T11:11:59;100292.22;;;26.28;52.95
9523;BME280;63165;43.016;25.784;2023-05-20T11:14:35;100253.22;;;25.88;52.48
9523;BME280;63165;43.016;25.784;2023-05-20T11:17:02;100248.53;;;26.03;51.89
9523;BME280;63165;43.016;25.784;2023-05-20T11:19:29;100282.06;;;26.31;51.41
9523;BME280;63165;43.016;25.784;2023-05-20T11:21:56;100286.25;;;26.36;52.19
9523;BME280;63165;43.016;25.784;2023-05-20T11:24:24;100249.16;;;26.18;51.45
9523;BME280;63165;43.016;25.784;2023-05-20T11:26:52;100267.19;;;26.39;49.99
9523;BME280;63165;43.016;25.784;2023-05-20T11:29:21;100243.44;;;26.45;49.81
9523;BME280;63165;43.016;25.784;2023-05-20T11:31:51;100252.13;;;26.60;49.49
9523;BME280;63165;43.016;25.784;2023-05-20T11:34:19;100243.06;;;26.61;49.46
9523;BME280;63165;43.016;25.784;2023-05-20T11:36:47;100211.56;;;26.52;49.64
9523;BME280;63165;43.016;25.784;2023-05-20T11:39:15;100238.56;;;26.73;49.64
9523;BME280;63165;43.016;25.784;2023-05-20T11:41:42;100234.13;;;26.83;49.03
9523;BME280;63165;43.016;25.784;2023-05-20T11:44:11;100253.41;;;26.88;49.80
9523;BME280;63165;43.016;25.784;2023-05-20T11:46:45;100226.47;;;26.79;49.95
9523;BME280;63165;43.016;25.784;2023-05-20T11:49:12;100213.31;;;26.64;48.98
9523;BME280;63165;43.016;25.784;2023-05-20T11:51:40;100187.41;;;26.52;48.95
9523;BME280;63165;43.016;25.784;2023-05-20T11:54:08;100247.06;;;26.78;48.13
9523;BME280;63165;43.016;25.784;2023-05-20T11:56:37;100202.31;;;26.79;47.41
9523;BME280;63165;43.016;25.784;2023-05-20T11:59:28;100148.09;;;26.41;47.41
9523;BME280;63165;43.016;25.784;2023-05-20T12:01:57;100218.63;;;27.19;47.58
9523;BME280;63165;43.016;25.784;2023-05-20T12:04:24;100210.31;;;27.22;47.00
9523;BME280;63165;43.016;25.784;2023-05-20T12:06:51;100217.16;;;27.26;47.73
9523;BME280;63165;43.016;25.784;2023-05-20T12:09:20;100208.44;;;27.34;48.40
9523;BME280;63165;43.016;25.784;2023-05-20T12:11:48;100175.50;;;27.21;47.34
9523;BME280;63165;43.016;25.784;2023-05-20T12:14:15;100186.03;;;27.45;46.45
9523;BME280;63165;43.016;25.784;2023-05-20T12:16:43;100199.34;;;27.67;46.43
9523;BME280;63165;43.016;25.784;2023-05-20T12:19:11;100130.56;;;27.23;47.19
9523;BME280;63165;43.016;25.784;2023-05-20T12:21:39;100194.38;;;27.63;47.08
9523;BME280;63165;43.016;25.784;2023-05-20T12:24:06;100192.78;;;27.60;46.21
9523;BME280;63165;43.016;25.784;2023-05-20T12:26:34;100183.00;;;27.38;46.07
9523;BME280;63165;43.016;25.784;2023-05-20T12:29:02;100189.91;;;27.31;46.63
9523;BME280;63165;43.016;25.784;2023-05-20T12:31:29;100183.66;;;27.30;47.25
9523;BME280;63165;43.016;25.784;2023-05-20T12:33:56;100177.59;;;27.17;47.93
9523;BME280;63165;43.016;25.784;2023-05-20T12:36:25;100154.78;;;26.90;47.48
9523;BME280;63165;43.016;25.784;2023-05-20T12:38:52;100139.88;;;26.65;47.71
9523;BME280;63165;43.016;25.784;2023-05-20T12:41:19;100104.44;;;26.39;48.68
9523;BME280;63165;43.016;25.784;2023-05-20T12:43:47;100112.22;;;26.42;48.80
9523;BME280;63165;43.016;25.784;2023-05-20T12:46:14;100130.03;;;26.43;49.16
9523;BME280;63165;43.016;25.784;2023-05-20T12:48:42;100122.75;;;26.23;49.08
9523;BME280;63165;43.016;25.784;2023-05-20T12:51:12;100139.44;;;26.26;48.99
9523;BME280;63165;43.016;25.784;2023-05-20T12:53:41;100137.75;;;26.14;49.47
9523;BME280;63165;43.016;25.784;2023-05-20T12:56:08;100151.03;;;26.04;50.22
9523;BME280;63165;43.016;25.784;2023-05-20T12:58:36;100132.38;;;25.91;51.39
9523;BME280;63165;43.016;25.784;2023-05-20T13:01:04;100123.09;;;25.84;50.69